sensor_id;sensor_type;location;lat;lon;timestamp;temperature;humidity
15543;DHT22;7873;52.230;12.856;2024-01-25T00:01:27;27.10;33.60
15543;DHT22;7873;52.230;12.856;2024-01-25T00:03:53;27.10;33.70
15543;DHT22;7873;52.230;12.856;2024-01-25T00:06:20;27.10;33.80
15543;DHT22;7873;52.230;12.856;2024-01-25T00:08:47;27.10;33.90
15543;DHT22;7873;52.230;12.856;2024-01-25T00:11:14;27.00;33.90
15543;DHT22;7873;52.230;12.856;2024-01-25T00:13:40;27.00;33.90
15543;DHT22;7873;52.230;12.856;2024-01-25T00:16:07;27.00;34.00
15543;DHT22;7873;52.230;12.856;2024-01-25T00:18:34;26.90;34.10
15543;DHT22;7873;52.230;12.856;2024-01-25T00:21:00;26.90;34.10
15543;DHT22;7873;52.230;12.856;2024-01-25T00:23:27;26.80;34.20
15543;DHT22;7873;52.230;12.856;2024-01-25T00:25:55;26.80;34.20
15543;DHT22;7873;52.230;12.856;2024-01-25T00:28:24;26.80;34.30
15543;DHT22;7873;52.230;12.856;2024-01-25T00:30:50;26.80;34.30
15543;DHT22;7873;52.230;12.856;2024-01-25T00:33:16;26.70;34.20
15543;DHT22;7873;52.230;12.856;2024-01-25T00:35:43;26.70;34.30
15543;DHT22;7873;52.230;12.856;2024-01-25T00:38:10;26.70;34.30
15543;DHT22;7873;52.230;12.856;2024-01-25T00:40:37;26.70;34.30
15543;DHT22;7873;52.230;12.856;2024-01-25T00:43:06;26.60;34.50
15543;DHT22;7873;52.230;12.856;2024-01-25T00:45:33;26.60;34.50
15543;DHT22;7873;52.230;12.856;2024-01-25T00:48:00;26.60;34.50
15543;DHT22;7873;52.230;12.856;2024-01-25T00:50:27;26.60;34.60
15543;DHT22;7873;52.230;12.856;2024-01-25T00:52:54;26.50;34.50
15543;DHT22;7873;52.230;12.856;2024-01-25T00:55:21;26.50;34.50
15543;DHT22;7873;52.230;12.856;2024-01-25T00:57:48;26.50;34.60
15543;DHT22;7873;52.230;12.856;2024-01-25T01:00:19;26.50;34.70
15543;DHT22;7873;52.230;12.856;2024-01-25T01:02:46;26.50;34.70
15543;DHT22;7873;52.230;12.856;2024-01-25T01:05:13;26.40;34.60
15543;DHT22;7873;52.230;12.856;2024-01-25T01:07:41;26.40;34.70
15543;DHT22;7873;52.230;12.856;2024-01-25T01:10:08;26.40;34.70
15543;DHT22;7873;52.230;12.856;2024-01-25T01:12:35;26.40;34.80
15543;DHT22;7873;52.230;12.856;2024-01-25T01:15:02;26.30;34.80
15543;DHT22;7873;52.230;12.856;2024-01-25T01:17:30;26.30;34.90
15543;DHT22;7873;52.230;12.856;2024-01-25T01:19:57;26.30;35.00
15543;DHT22;7873;52.230;12.856;2024-01-25T01:22:23;26.30;35.00
15543;DHT22;7873;52.230;12.856;2024-01-25T01:24:50;26.20;35.00
15543;DHT22;7873;52.230;12.856;2024-01-25T01:27:16;26.20;35.00
15543;DHT22;7873;52.230;12.856;2024-01-25T01:29:43;26.20;35.10
15543;DHT22;7873;52.230;12.856;2024-01-25T01:32:09;26.10;35.10
15543;DHT22;7873;52.230;12.856;2024-01-25T01:34:37;26.10;35.10
15543;DHT22;7873;52.230;12.856;2024-01-25T01:37:03;26.10;35.10
15543;DHT22;7873;52.230;12.856;2024-01-25T01:39:30;26.00;35.10
15543;DHT22;7873;52.230;12.856;2024-01-25T01:41:56;26.00;35.20
15543;DHT22;7873;52.230;12.856;2024-01-25T01:44:23;26.00;36.00
15543;DHT22;7873;52.230;12.856;2024-01-25T01:46:49;26.00;35.30
15543;DHT22;7873;52.230;12.856;2024-01-25T01:49:16;26.00;35.20
15543;DHT22;7873;52.230;12.856;2024-01-25T01:51:44;26.00;35.40
15543;DHT22;7873;52.230;12.856;2024-01-25T01:54:11;25.90;35.40
15543;DHT22;7873;52.230;12.856;2024-01-25T01:56:38;25.90;35.40
15543;DHT22;7873;52.230;12.856;2024-01-25T01:59:05;25.90;35.50
15543;DHT22;7873;52.230;12.856;2024-01-25T02:01:36;25.80;35.40
15543;DHT22;7873;52.230;12.856;2024-01-25T02:04:02;25.80;35.50
15543;DHT22;7873;52.230;12.856;2024-01-25T02:06:29;25.80;35.60
15543;DHT22;7873;52.230;12.856;2024-01-25T02:08:57;25.80;35.70
15543;DHT22;7873;52.230;12.856;2024-01-25T02:11:24;25.70;35.60
15543;DHT22;7873;52.230;12.856;2024-01-25T02:13:51;25.70;35.70
15543;DHT22;7873;52.230;12.856;2024-01-25T02:16:17;25.70;35.70
15543;DHT22;7873;52.230;12.856;2024-01-25T02:18:45;25.70;35.70
15543;DHT22;7873;52.230;12.856;2024-01-25T02:21:11;25.70;35.70
15543;DHT22;7873;52.230;12.856;2024-01-25T02:23:39;25.60;35.80
15543;DHT22;7873;52.230;12.856;2024-01-25T02:26:06;25.60;35.70
15543;DHT22;7873;52.230;12.856;2024-01-25T02:28:32;25.60;35.90
15543;DHT22;7873;52.230;12.856;2024-01-25T02:31:00;25.60;35.90
15543;DHT22;7873;52.230;12.856;2024-01-25T02:33:28;25.50;35.90
15543;DHT22;7873;52.230;12.856;2024-01-25T02:35:54;25.50;35.80
15543;DHT22;7873;52.230;12.856;2024-01-25T02:38:21;25.50;35.90
15543;DHT22;7873;52.230;12.856;2024-01-25T02:40:49;25.50;35.90
15543;DHT22;7873;52.230;12.856;2024-01-25T02:43:15;25.50;35.90
15543;DHT22;7873;52.230;12.856;2024-01-25T02:45:42;25.50;36.00
15543;DHT22;7873;52.230;12.856;2024-01-25T02:48:08;25.50;35.90
15543;DHT22;7873;52.230;12.856;2024-01-25T02:50:35;25.50;36.00
15543;DHT22;7873;52.230;12.856;2024-01-25T02:53:01;25.40;36.00
15543;DHT22;7873;52.230;12.856;2024-01-25T02:55:28;25.40;36.00
15543;DHT22;7873;52.230;12.856;2024-01-25T02:57:55;25.40;36.00
15543;DHT22;7873;52.230;12.856;2024-01-25T03:00:22;25.40;35.90
15543;DHT22;7873;52.230;12.856;2024-01-25T03:02:48;25.40;36.10
15543;DHT22;7873;52.230;12.856;2024-01-25T03:05:15;25.30;36.00
15543;DHT22;7873;52.230;12.856;2024-01-25T03:07:41;25.30;36.10
15543;DHT22;7873;52.230;12.856;2024-01-25T03:10:08;25.30;36.10
15543;DHT22;7873;52.230;12.856;2024-01-25T03:12:35;25.30;36.10
15543;DHT22;7873;52.230;12.856;2024-01-25T03:15:02;25.20;36.10
15543;DHT22;7873;52.230;12.856;2024-01-25T03:17:29;25.20;36.10
15543;DHT22;7873;52.230;12.856;2024-01-25T03:19:55;25.20;36.20
15543;DHT22;7873;52.230;12.856;2024-01-25T03:22:22;25.20;36.20
15543;DHT22;7873;52.230;12.856;2024-01-25T03:24:48;25.20;36.20
15543;DHT22;7873;52.230;12.856;2024-01-25T03:27:15;25.20;36.20
15543;DHT22;7873;52.230;12.856;2024-01-25T03:29:41;25.20;36.30
15543;DHT22;7873;52.230;12.856;2024-01-25T03:32:09;25.20;36.10
15543;DHT22;7873;52.230;12.856;2024-01-25T03:34:36;25.10;36.20
15543;DHT22;7873;52.230;12.856;2024-01-25T03:37:03;25.10;36.30
15543;DHT22;7873;52.230;12.856;2024-01-25T03:39:29;25.10;36.10
15543;DHT22;7873;52.230;12.856;2024-01-25T03:41:56;25.00;36.10
15543;DHT22;7873;52.230;12.856;2024-01-25T03:44:22;25.00;36.90
15543;DHT22;7873;52.230;12.856;2024-01-25T03:46:49;25.10;36.30
15543;DHT22;7873;52.230;12.856;2024-01-25T03:49:17;25.00;36.30
15543;DHT22;7873;52.230;12.856;2024-01-25T03:51:44;25.00;36.40
15543;DHT22;7873;52.230;12.856;2024-01-25T03:54:10;25.00;36.30
15543;DHT22;7873;52.230;12.856;2024-01-25T03:56:37;25.00;36.30
15543;DHT22;7873;52.230;12.856;2024-01-25T03:59:04;25.00;36.60
15543;DHT22;7873;52.230;12.856;2024-01-25T04:01:40;25.00;36.40
15543;DHT22;7873;52.230;12.856;2024-01-25T04:04:07;24.90;36.50
15543;DHT22;7873;52.230;12.856;2024-01-25T04:06:38;24.90;36.40
15543;DHT22;7873;52.230;12.856;2024-01-25T04:09:06;24.90;37.20
15543;DHT22;7873;52.230;12.856;2024-01-25T04:11:33;24.90;36.50
15543;DHT22;7873;52.230;12.856;2024-01-25T04:13:59;24.90;36.50
15543;DHT22;7873;52.230;12.856;2024-01-25T04:16:26;24.80;36.40
15543;DHT22;7873;52.230;12.856;2024-01-25T04:18:52;24.90;36.40
15543;DHT22;7873;52.230;12.856;2024-01-25T04:21:19;24.80;36.20
15543;DHT22;7873;52.230;12.856;2024-01-25T04:23:47;24.80;36.20
15543;DHT22;7873;52.230;12.856;2024-01-25T04:26:14;24.80;36.30
15543;DHT22;7873;52.230;12.856;2024-01-25T04:28:40;24.80;36.10
15543;DHT22;7873;52.230;12.856;2024-01-25T04:31:07;24.80;36.10
15543;DHT22;7873;52.230;12.856;2024-01-25T04:33:32;24.80;36.10
15543;DHT22;7873;52.230;12.856;2024-01-25T04:35:59;24.80;36.00
15543;DHT22;7873;52.230;12.856;2024-01-25T04:38:25;24.80;36.10
15543;DHT22;7873;52.230;12.856;2024-01-25T04:40:53;24.80;36.10
15543;DHT22;7873;52.230;12.856;2024-01-25T04:43:19;24.80;36.10
15543;DHT22;7873;52.230;12.856;2024-01-25T04:45:46;24.80;36.10
15543;DHT22;7873;52.230;12.856;2024-01-25T04:48:13;24.80;36.10
15543;DHT22;7873;52.230;12.856;2024-01-25T04:50:39;24.80;35.90
15543;DHT22;7873;52.230;12.856;2024-01-25T04:53:06;24.70;36.10
15543;DHT22;7873;52.230;12.856;2024-01-25T04:55:32;24.70;36.00
15543;DHT22;7873;52.230;12.856;2024-01-25T04:58:00;24.80;36.10
15543;DHT22;7873;52.230;12.856;2024-01-25T05:00:26;24.80;35.80
15543;DHT22;7873;52.230;12.856;2024-01-25T05:02:53;24.90;35.50
15543;DHT22;7873;52.230;12.856;2024-01-25T05:05:19;25.00;35.40
15543;DHT22;7873;52.230;12.856;2024-01-25T05:07:46;25.00;35.30
15543;DHT22;7873;52.230;12.856;2024-01-25T05:10:13;25.10;35.30
15543;DHT22;7873;52.230;12.856;2024-01-25T05:12:39;25.10;35.30
15543;DHT22;7873;52.230;12.856;2024-01-25T05:15:07;25.10;35.20
15543;DHT22;7873;52.230;12.856;2024-01-25T05:17:34;25.10;35.30
15543;DHT22;7873;52.230;12.856;2024-01-25T05:20:00;25.00;35.40
15543;DHT22;7873;52.230;12.856;2024-01-25T05:22:28;24.90;34.70
15543;DHT22;7873;52.230;12.856;2024-01-25T05:24:55;24.90;34.40
15543;DHT22;7873;52.230;12.856;2024-01-25T05:27:21;24.90;34.80
15543;DHT22;7873;52.230;12.856;2024-01-25T05:29:48;25.00;34.60
15543;DHT22;7873;52.230;12.856;2024-01-25T05:32:16;25.00;34.30
15543;DHT22;7873;52.230;12.856;2024-01-25T05:34:43;25.10;34.00
15543;DHT22;7873;52.230;12.856;2024-01-25T05:37:09;25.10;33.90
15543;DHT22;7873;52.230;12.856;2024-01-25T05:39:35;25.10;33.90
15543;DHT22;7873;52.230;12.856;2024-01-25T05:42:02;25.10;33.90
15543;DHT22;7873;52.230;12.856;2024-01-25T05:44:29;25.10;34.90
15543;DHT22;7873;52.230;12.856;2024-01-25T05:46:56;25.10;35.00
15543;DHT22;7873;52.230;12.856;2024-01-25T05:49:24;25.10;34.50
15543;DHT22;7873;52.230;12.856;2024-01-25T05:51:50;25.00;34.80
15543;DHT22;7873;52.230;12.856;2024-01-25T05:54:17;25.00;34.50
15543;DHT22;7873;52.230;12.856;2024-01-25T05:56:43;25.00;34.50
15543;DHT22;7873;52.230;12.856;2024-01-25T05:59:10;25.00;34.50
15543;DHT22;7873;52.230;12.856;2024-01-25T06:01:36;25.00;34.70
15543;DHT22;7873;52.230;12.856;2024-01-25T06:04:03;25.00;34.90
15543;DHT22;7873;52.230;12.856;2024-01-25T06:06:31;25.00;35.30
15543;DHT22;7873;52.230;12.856;2024-01-25T06:08:57;24.80;33.10
15543;DHT22;7873;52.230;12.856;2024-01-25T06:11:23;24.60;33.00
15543;DHT22;7873;52.230;12.856;2024-01-25T06:13:50;24.40;33.10
15543;DHT22;7873;52.230;12.856;2024-01-25T06:16:16;24.40;32.80
15543;DHT22;7873;52.230;12.856;2024-01-25T06:18:43;24.30;32.00
15543;DHT22;7873;52.230;12.856;2024-01-25T06:21:09;24.20;32.00
15543;DHT22;7873;52.230;12.856;2024-01-25T06:23:37;24.10;32.60
15543;DHT22;7873;52.230;12.856;2024-01-25T06:26:03;23.80;31.40
15543;DHT22;7873;52.230;12.856;2024-01-25T06:28:30;23.70;32.40
15543;DHT22;7873;52.230;12.856;2024-01-25T06:30:57;23.80;32.80
15543;DHT22;7873;52.230;12.856;2024-01-25T06:33:23;23.70;32.30
15543;DHT22;7873;52.230;12.856;2024-01-25T06:35:49;23.80;33.30
15543;DHT22;7873;52.230;12.856;2024-01-25T06:38:16;23.80;32.20
15543;DHT22;7873;52.230;12.856;2024-01-25T06:40:45;23.80;32.50
15543;DHT22;7873;52.230;12.856;2024-01-25T06:43:11;23.60;31.00
15543;DHT22;7873;52.230;12.856;2024-01-25T06:45:38;23.60;32.20
15543;DHT22;7873;52.230;12.856;2024-01-25T06:48:05;23.60;33.30
15543;DHT22;7873;52.230;12.856;2024-01-25T06:50:33;23.70;32.60
15543;DHT22;7873;52.230;12.856;2024-01-25T06:55:09;23.40;30.80
15543;DHT22;7873;52.230;12.856;2024-01-25T06:57:36;23.50;32.80
15543;DHT22;7873;52.230;12.856;2024-01-25T07:00:05;23.50;33.60
15543;DHT22;7873;52.230;12.856;2024-01-25T07:02:33;23.60;33.00
15543;DHT22;7873;52.230;12.856;2024-01-25T07:04:59;23.50;31.50
15543;DHT22;7873;52.230;12.856;2024-01-25T07:07:26;23.40;30.50
15543;DHT22;7873;52.230;12.856;2024-01-25T07:09:53;23.10;31.30
15543;DHT22;7873;52.230;12.856;2024-01-25T07:12:21;23.00;31.90
15543;DHT22;7873;52.230;12.856;2024-01-25T07:14:47;22.70;31.50
15543;DHT22;7873;52.230;12.856;2024-01-25T07:17:13;22.60;31.60
15543;DHT22;7873;52.230;12.856;2024-01-25T07:19:40;22.40;31.70
15543;DHT22;7873;52.230;12.856;2024-01-25T07:22:07;22.30;32.30
15543;DHT22;7873;52.230;12.856;2024-01-25T07:24:33;22.30;31.60
15543;DHT22;7873;52.230;12.856;2024-01-25T07:26:59;22.10;32.40
15543;DHT22;7873;52.230;12.856;2024-01-25T07:29:27;22.30;32.20
15543;DHT22;7873;52.230;12.856;2024-01-25T07:31:54;22.50;32.70
15543;DHT22;7873;52.230;12.856;2024-01-25T07:34:20;22.60;33.30
15543;DHT22;7873;52.230;12.856;2024-01-25T07:36:47;22.70;33.60
15543;DHT22;7873;52.230;12.856;2024-01-25T07:39:13;22.90;33.60
15543;DHT22;7873;52.230;12.856;2024-01-25T07:41:40;22.90;33.60
15543;DHT22;7873;52.230;12.856;2024-01-25T07:44:06;23.00;33.70
15543;DHT22;7873;52.230;12.856;2024-01-25T07:46:34;23.10;33.70
15543;DHT22;7873;52.230;12.856;2024-01-25T07:49:01;23.10;33.70
15543;DHT22;7873;52.230;12.856;2024-01-25T07:51:27;23.10;33.80
15543;DHT22;7873;52.230;12.856;2024-01-25T07:53:54;23.10;33.80
15543;DHT22;7873;52.230;12.856;2024-01-25T07:56:20;23.20;33.80
15543;DHT22;7873;52.230;12.856;2024-01-25T07:58:48;23.20;33.80
15543;DHT22;7873;52.230;12.856;2024-01-25T08:01:16;23.20;33.80
15543;DHT22;7873;52.230;12.856;2024-01-25T08:03:45;23.20;34.00
15543;DHT22;7873;52.230;12.856;2024-01-25T08:06:11;23.20;34.00
15543;DHT22;7873;52.230;12.856;2024-01-25T08:08:38;23.20;34.10
15543;DHT22;7873;52.230;12.856;2024-01-25T08:11:04;23.20;34.00
15543;DHT22;7873;52.230;12.856;2024-01-25T08:13:31;23.20;34.00
15543;DHT22;7873;52.230;12.856;2024-01-25T08:15:58;23.20;34.10
15543;DHT22;7873;52.230;12.856;2024-01-25T08:18:25;23.10;34.10
15543;DHT22;7873;52.230;12.856;2024-01-25T08:20:55;23.10;34.20
15543;DHT22;7873;52.230;12.856;2024-01-25T08:23:22;23.00;34.40
15543;DHT22;7873;52.230;12.856;2024-01-25T08:25:48;23.00;34.50
15543;DHT22;7873;52.230;12.856;2024-01-25T08:28:15;23.00;34.60
15543;DHT22;7873;52.230;12.856;2024-01-25T08:30:41;22.90;34.70
15543;DHT22;7873;52.230;12.856;2024-01-25T08:33:08;22.90;34.80
15543;DHT22;7873;52.230;12.856;2024-01-25T08:35:34;22.90;35.00
15543;DHT22;7873;52.230;12.856;2024-01-25T08:38:02;22.80;34.90
15543;DHT22;7873;52.230;12.856;2024-01-25T08:40:29;22.80;39.20
15543;DHT22;7873;52.230;12.856;2024-01-25T08:42:55;22.80;35.00
15543;DHT22;7873;52.230;12.856;2024-01-25T08:45:22;22.80;34.90
15543;DHT22;7873;52.230;12.856;2024-01-25T08:47:48;22.90;34.90
15543;DHT22;7873;52.230;12.856;2024-01-25T08:50:16;22.90;35.10
15543;DHT22;7873;52.230;12.856;2024-01-25T08:52:43;22.90;35.20
15543;DHT22;7873;52.230;12.856;2024-01-25T08:55:11;22.90;35.30
15543;DHT22;7873;52.230;12.856;2024-01-25T08:57:37;22.80;35.20
15543;DHT22;7873;52.230;12.856;2024-01-25T09:00:05;22.90;35.20
15543;DHT22;7873;52.230;12.856;2024-01-25T09:02:35;22.90;35.20
15543;DHT22;7873;52.230;12.856;2024-01-25T09:05:02;22.80;35.30
15543;DHT22;7873;52.230;12.856;2024-01-25T09:07:29;22.80;35.30
15543;DHT22;7873;52.230;12.856;2024-01-25T09:09:56;22.80;35.30
15543;DHT22;7873;52.230;12.856;2024-01-25T09:12:23;22.80;35.30
15543;DHT22;7873;52.230;12.856;2024-01-25T09:14:50;22.90;35.40
15543;DHT22;7873;52.230;12.856;2024-01-25T09:17:17;22.80;35.40
15543;DHT22;7873;52.230;12.856;2024-01-25T09:19:47;22.90;35.60
15543;DHT22;7873;52.230;12.856;2024-01-25T09:22:13;22.90;35.60
15543;DHT22;7873;52.230;12.856;2024-01-25T09:24:42;22.90;35.70
15543;DHT22;7873;52.230;12.856;2024-01-25T09:27:08;22.90;35.60
15543;DHT22;7873;52.230;12.856;2024-01-25T09:29:36;22.90;35.70
15543;DHT22;7873;52.230;12.856;2024-01-25T09:32:04;22.80;35.70
15543;DHT22;7873;52.230;12.856;2024-01-25T09:34:30;22.90;35.80
15543;DHT22;7873;52.230;12.856;2024-01-25T09:36:57;22.80;35.80
15543;DHT22;7873;52.230;12.856;2024-01-25T09:39:23;22.80;35.80
15543;DHT22;7873;52.230;12.856;2024-01-25T09:41:50;22.90;35.90
15543;DHT22;7873;52.230;12.856;2024-01-25T09:44:16;22.80;35.90
15543;DHT22;7873;52.230;12.856;2024-01-25T09:46:45;22.80;35.70
15543;DHT22;7873;52.230;12.856;2024-01-25T09:49:11;22.80;35.70
15543;DHT22;7873;52.230;12.856;2024-01-25T09:51:41;22.80;36.00
15543;DHT22;7873;52.230;12.856;2024-01-25T09:54:08;22.80;36.00
15543;DHT22;7873;52.230;12.856;2024-01-25T09:56:35;22.80;36.00
15543;DHT22;7873;52.230;12.856;2024-01-25T09:59:02;22.80;36.00
15543;DHT22;7873;52.230;12.856;2024-01-25T10:01:29;22.80;36.00
15543;DHT22;7873;52.230;12.856;2024-01-25T10:03:57;22.80;36.00
15543;DHT22;7873;52.230;12.856;2024-01-25T10:06:24;22.80;36.00
15543;DHT22;7873;52.230;12.856;2024-01-25T10:08:49;22.80;36.10
15543;DHT22;7873;52.230;12.856;2024-01-25T10:11:16;22.80;35.80
15543;DHT22;7873;52.230;12.856;2024-01-25T10:13:43;22.70;35.70
15543;DHT22;7873;52.230;12.856;2024-01-25T10:16:11;22.70;36.30
15543;DHT22;7873;52.230;12.856;2024-01-25T10:18:40;22.80;38.70
15543;DHT22;7873;52.230;12.856;2024-01-25T10:21:09;22.70;40.70
15543;DHT22;7873;52.230;12.856;2024-01-25T10:23:36;22.70;42.10
15543;DHT22;7873;52.230;12.856;2024-01-25T10:26:03;22.60;42.10
15543;DHT22;7873;52.230;12.856;2024-01-25T10:28:30;22.60;41.10
15543;DHT22;7873;52.230;12.856;2024-01-25T10:30:59;22.60;43.30
15543;DHT22;7873;52.230;12.856;2024-01-25T10:33:27;22.50;42.00
15543;DHT22;7873;52.230;12.856;2024-01-25T10:35:54;22.60;39.80
15543;DHT22;7873;52.230;12.856;2024-01-25T10:38:28;22.60;39.00
15543;DHT22;7873;52.230;12.856;2024-01-25T10:40:57;22.60;38.30
15543;DHT22;7873;52.230;12.856;2024-01-25T10:43:25;22.60;38.50
15543;DHT22;7873;52.230;12.856;2024-01-25T10:45:52;22.60;37.50
15543;DHT22;7873;52.230;12.856;2024-01-25T10:48:21;22.60;37.40
15543;DHT22;7873;52.230;12.856;2024-01-25T10:50:48;22.60;37.50
15543;DHT22;7873;52.230;12.856;2024-01-25T10:53:14;22.60;37.10
15543;DHT22;7873;52.230;12.856;2024-01-25T10:55:43;22.60;37.20
15543;DHT22;7873;52.230;12.856;2024-01-25T10:58:12;22.60;37.30
15543;DHT22;7873;52.230;12.856;2024-01-25T11:00:39;22.60;37.30
15543;DHT22;7873;52.230;12.856;2024-01-25T11:03:06;22.60;37.30
15543;DHT22;7873;52.230;12.856;2024-01-25T11:05:33;22.60;37.30
15543;DHT22;7873;52.230;12.856;2024-01-25T11:08:00;22.60;37.30
15543;DHT22;7873;52.230;12.856;2024-01-25T11:10:27;22.60;37.20
15543;DHT22;7873;52.230;12.856;2024-01-25T11:12:57;22.40;35.10
15543;DHT22;7873;52.230;12.856;2024-01-25T11:15:29;22.50;35.40
15543;DHT22;7873;52.230;12.856;2024-01-25T11:17:57;22.50;35.60
15543;DHT22;7873;52.230;12.856;2024-01-25T11:20:24;22.50;36.10
15543;DHT22;7873;52.230;12.856;2024-01-25T11:22:58;22.60;36.40
15543;DHT22;7873;52.230;12.856;2024-01-25T11:25:28;22.70;36.40
15543;DHT22;7873;52.230;12.856;2024-01-25T11:27:57;22.70;36.40
15543;DHT22;7873;52.230;12.856;2024-01-25T11:30:25;22.80;36.10
15543;DHT22;7873;52.230;12.856;2024-01-25T11:32:51;23.00;36.00
15543;DHT22;7873;52.230;12.856;2024-01-25T11:35:18;23.20;35.80
15543;DHT22;7873;52.230;12.856;2024-01-25T11:37:44;23.40;35.40
15543;DHT22;7873;52.230;12.856;2024-01-25T11:40:12;23.60;35.00
15543;DHT22;7873;52.230;12.856;2024-01-25T11:42:40;23.90;34.60
15543;DHT22;7873;52.230;12.856;2024-01-25T11:45:09;24.10;34.30
15543;DHT22;7873;52.230;12.856;2024-01-25T11:47:37;24.40;33.50
15543;DHT22;7873;52.230;12.856;2024-01-25T11:50:05;24.60;33.50
15543;DHT22;7873;52.230;12.856;2024-01-25T11:52:33;24.80;33.10
15543;DHT22;7873;52.230;12.856;2024-01-25T11:55:00;25.00;32.80
15543;DHT22;7873;52.230;12.856;2024-01-25T11:57:28;25.20;32.50
15543;DHT22;7873;52.230;12.856;2024-01-25T11:59:55;25.40;32.20
15543;DHT22;7873;52.230;12.856;2024-01-25T12:02:23;25.50;32.00
15543;DHT22;7873;52.230;12.856;2024-01-25T12:04:50;25.70;32.50
15543;DHT22;7873;52.230;12.856;2024-01-25T12:07:19;25.80;31.40
15543;DHT22;7873;52.230;12.856;2024-01-25T12:09:56;26.00;31.30
15543;DHT22;7873;52.230;12.856;2024-01-25T12:12:23;26.00;31.20
15543;DHT22;7873;52.230;12.856;2024-01-25T12:14:49;26.10;31.10
15543;DHT22;7873;52.230;12.856;2024-01-25T12:17:17;26.30;31.00
15543;DHT22;7873;52.230;12.856;2024-01-25T12:19:45;26.40;30.70
15543;DHT22;7873;52.230;12.856;2024-01-25T12:22:11;26.50;30.70
15543;DHT22;7873;52.230;12.856;2024-01-25T12:24:38;26.50;30.60
15543;DHT22;7873;52.230;12.856;2024-01-25T12:27:04;26.60;30.50
15543;DHT22;7873;52.230;12.856;2024-01-25T12:29:31;26.70;30.50
15543;DHT22;7873;52.230;12.856;2024-01-25T12:31:58;26.70;30.40
15543;DHT22;7873;52.230;12.856;2024-01-25T12:34:25;26.80;30.30
15543;DHT22;7873;52.230;12.856;2024-01-25T12:36:52;26.80;30.40
15543;DHT22;7873;52.230;12.856;2024-01-25T12:39:19;26.90;30.30
15543;DHT22;7873;52.230;12.856;2024-01-25T12:41:46;27.00;30.20
15543;DHT22;7873;52.230;12.856;2024-01-25T12:44:13;27.00;30.10
15543;DHT22;7873;52.230;12.856;2024-01-25T12:46:39;27.10;30.10
15543;DHT22;7873;52.230;12.856;2024-01-25T12:49:06;27.10;30.20
15543;DHT22;7873;52.230;12.856;2024-01-25T12:51:32;27.10;30.00
15543;DHT22;7873;52.230;12.856;2024-01-25T12:54:00;27.10;30.10
15543;DHT22;7873;52.230;12.856;2024-01-25T12:56:26;27.10;30.10
15543;DHT22;7873;52.230;12.856;2024-01-25T12:58:53;27.20;30.10
15543;DHT22;7873;52.230;12.856;2024-01-25T13:01:19;27.20;30.00
15543;DHT22;7873;52.230;12.856;2024-01-25T13:03:46;27.20;30.10
15543;DHT22;7873;52.230;12.856;2024-01-25T13:06:13;27.30;30.00
15543;DHT22;7873;52.230;12.856;2024-01-25T13:08:40;27.40;30.00
15543;DHT22;7873;52.230;12.856;2024-01-25T13:11:08;27.50;29.80
15543;DHT22;7873;52.230;12.856;2024-01-25T13:13:35;27.60;29.80
15543;DHT22;7873;52.230;12.856;2024-01-25T13:16:01;27.60;29.80
15543;DHT22;7873;52.230;12.856;2024-01-25T13:18:28;27.70;29.70
15543;DHT22;7873;52.230;12.856;2024-01-25T13:20:54;27.80;29.70
15543;DHT22;7873;52.230;12.856;2024-01-25T13:23:21;27.80;29.60
15543;DHT22;7873;52.230;12.856;2024-01-25T13:25:47;27.90;29.60
15543;DHT22;7873;52.230;12.856;2024-01-25T13:28:15;27.90;29.60
15543;DHT22;7873;52.230;12.856;2024-01-25T13:30:42;28.00;29.50
15543;DHT22;7873;52.230;12.856;2024-01-25T13:33:08;28.10;29.50
15543;DHT22;7873;52.230;12.856;2024-01-25T13:35:35;28.10;29.50
15543;DHT22;7873;52.230;12.856;2024-01-25T13:38:01;28.20;29.50
15543;DHT22;7873;52.230;12.856;2024-01-25T13:40:28;28.20;29.50
15543;DHT22;7873;52.230;12.856;2024-01-25T13:42:54;28.20;29.40
15543;DHT22;7873;52.230;12.856;2024-01-25T13:45:22;28.20;29.30
15543;DHT22;7873;52.230;12.856;2024-01-25T13:47:49;28.20;29.60
15543;DHT22;7873;52.230;12.856;2024-01-25T13:50:15;28.10;29.50
15543;DHT22;7873;52.230;12.856;2024-01-25T13:52:42;28.10;29.60
15543;DHT22;7873;52.230;12.856;2024-01-25T13:55:08;28.00;29.60
15543;DHT22;7873;52.230;12.856;2024-01-25T13:57:35;28.00;29.70
15543;DHT22;7873;52.230;12.856;2024-01-25T14:00:01;27.90;29.80
15543;DHT22;7873;52.230;12.856;2024-01-25T14:02:31;27.90;29.90
15543;DHT22;7873;52.230;12.856;2024-01-25T14:04:57;27.80;29.90
15543;DHT22;7873;52.230;12.856;2024-01-25T14:07:24;27.70;30.00
15543;DHT22;7873;52.230;12.856;2024-01-25T14:09:50;27.70;30.10
15543;DHT22;7873;52.230;12.856;2024-01-25T14:12:18;27.60;30.20
15543;DHT22;7873;52.230;12.856;2024-01-25T14:14:44;27.50;30.30
15543;DHT22;7873;52.230;12.856;2024-01-25T14:17:11;27.50;31.00
15543;DHT22;7873;52.230;12.856;2024-01-25T14:19:39;27.50;30.30
15543;DHT22;7873;52.230;12.856;2024-01-25T14:22:05;27.40;30.40
15543;DHT22;7873;52.230;12.856;2024-01-25T14:24:32;27.40;30.60
15543;DHT22;7873;52.230;12.856;2024-01-25T14:26:58;27.30;30.60
15543;DHT22;7873;52.230;12.856;2024-01-25T14:29:25;27.30;30.70
15543;DHT22;7873;52.230;12.856;2024-01-25T14:31:51;27.40;30.60
15543;DHT22;7873;52.230;12.856;2024-01-25T14:34:18;27.50;30.50
15543;DHT22;7873;52.230;12.856;2024-01-25T14:36:45;27.50;30.40
15543;DHT22;7873;52.230;12.856;2024-01-25T14:39:12;27.60;30.00
15543;DHT22;7873;52.230;12.856;2024-01-25T14:41:40;27.70;30.10
15543;DHT22;7873;52.230;12.856;2024-01-25T14:44:07;27.80;30.00
15543;DHT22;7873;52.230;12.856;2024-01-25T14:46:33;27.40;28.20
15543;DHT22;7873;52.230;12.856;2024-01-25T14:49:00;27.40;29.00
15543;DHT22;7873;52.230;12.856;2024-01-25T14:51:26;27.40;29.10
15543;DHT22;7873;52.230;12.856;2024-01-25T14:53:54;27.50;29.10
15543;DHT22;7873;52.230;12.856;2024-01-25T14:56:21;27.20;28.80
15543;DHT22;7873;52.230;12.856;2024-01-25T14:58:47;27.20;29.40
15543;DHT22;7873;52.230;12.856;2024-01-25T15:01:14;27.30;29.40
15543;DHT22;7873;52.230;12.856;2024-01-25T15:03:42;27.30;29.30
15543;DHT22;7873;52.230;12.856;2024-01-25T15:06:09;27.40;29.90
15543;DHT22;7873;52.230;12.856;2024-01-25T15:08:36;27.50;29.40
15543;DHT22;7873;52.230;12.856;2024-01-25T15:11:04;27.50;29.40
15543;DHT22;7873;52.230;12.856;2024-01-25T15:13:30;27.50;29.30
15543;DHT22;7873;52.230;12.856;2024-01-25T15:15:56;27.20;28.70
15543;DHT22;7873;52.230;12.856;2024-01-25T15:18:22;26.90;29.60
15543;DHT22;7873;52.230;12.856;2024-01-25T15:20:49;26.80;29.60
15543;DHT22;7873;52.230;12.856;2024-01-25T15:23:16;26.90;29.70
15543;DHT22;7873;52.230;12.856;2024-01-25T15:25:42;27.00;28.80
15543;DHT22;7873;52.230;12.856;2024-01-25T15:28:10;27.00;29.00
15543;DHT22;7873;52.230;12.856;2024-01-25T15:30:37;27.00;29.40